sensor_id;sensor_type;location;lat;lon;timestamp;pressure;altitude;pressure_sealevel;temperature;humidity
64352;BME280;50680;52.626;-8.668;2023-08-06T17:47:51;102279.84;;;17.78;100.00
64352;BME280;50680;52.626;-8.668;2023-08-06T17:50:18;102282.72;;;17.60;100.00
64352;BME280;50680;52.626;-8.668;2023-08-06T17:52:45;102280.09;;;17.60;100.00
64352;BME280;50680;52.626;-8.668;2023-08-06T17:55:13;102289.19;;;17.56;100.00
64352;BME280;50680;52.626;-8.668;2023-08-06T17:57:40;102290.03;;;17.57;100.00
64352;BME280;50680;52.626;-8.668;2023-08-06T18:00:08;102286.63;;;17.55;100.00
64352;BME280;50680;52.626;-8.668;2023-08-06T18:02:35;102283.13;;;17.54;100.00
64352;BME280;50680;52.626;-8.668;2023-08-06T18:05:02;102278.31;;;17.46;100.00
64352;BME280;50680;52.626;-8.668;2023-08-06T18:07:29;102273.84;;;17.47;100.00
64352;BME280;50680;52.626;-8.668;2023-08-06T18:09:56;102275.84;;;17.43;100.00
64352;BME280;50680;52.626;-8.668;2023-08-06T18:12:23;102281.44;;;17.39;100.00
64352;BME280;50680;52.626;-8.668;2023-08-06T18:14:50;102283.91;;;17.42;100.00
64352;BME280;50680;52.626;-8.668;2023-08-06T18:17:17;102282.94;;;17.57;100.00
64352;BME280;50680;52.626;-8.668;2023-08-06T18:19:44;102280.69;;;17.51;100.00
64352;BME280;50680;52.626;-8.668;2023-08-06T18:22:11;102286.34;;;17.45;100.00
64352;BME280;50680;52.626;-8.668;2023-08-06T18:24:38;102281.06;;;17.45;100.00
64352;BME280;50680;52.626;-8.668;2023-08-06T18:27:05;102283.16;;;17.40;100.00
64352;BME280;50680;52.626;-8.668;2023-08-06T18:29:32;102278.22;;;17.34;100.00
64352;BME280;50680;52.626;-8.668;2023-08-06T18:32:00;102282.03;;;17.29;100.00
64352;BME280;50680;52.626;-8.668;2023-08-06T18:34:27;102278.63;;;17.27;100.00
64352;BME280;50680;52.626;-8.668;2023-08-06T18:36:54;102287.31;;;17.29;100.00
64352;BME280;50680;52.626;-8.668;2023-08-06T18:39:21;102284.75;;;17.28;100.00
64352;BME280;50680;52.626;-8.668;2023-08-06T18:41:48;102279.56;;;17.26;100.00
64352;BME280;50680;52.626;-8.668;2023-08-06T18:44:15;102289.22;;;17.27;100.00
64352;BME280;50680;52.626;-8.668;2023-08-06T18:46:42;102289.50;;;17.23;100.00
64352;BME280;50680;52.626;-8.668;2023-08-06T18:49:09;102293.47;;;17.30;100.00
64352;BME280;50680;52.626;-8.668;2023-08-06T18:51:36;102296.44;;;17.25;100.00
64352;BME280;50680;52.626;-8.668;2023-08-06T18:54:03;102292.06;;;17.10;100.00
64352;BME280;50680;52.626;-8.668;2023-08-06T18:56:30;102292.63;;;17.01;100.00
64352;BME280;50680;52.626;-8.668;2023-08-06T18:58:57;102294.03;;;16.92;100.00
64352;BME280;50680;52.626;-8.668;2023-08-06T19:01:24;102300.47;;;16.88;100.00
64352;BME280;50680;52.626;-8.668;2023-08-06T19:03:51;102300.94;;;16.80;100.00
64352;BME280;50680;52.626;-8.668;2023-08-06T19:06:18;102302.44;;;16.70;100.00
64352;BME280;50680;52.626;-8.668;2023-08-06T19:08:44;102297.41;;;16.65;100.00
64352;BME280;50680;52.626;-8.668;2023-08-06T19:11:11;102302.97;;;16.61;100.00
64352;BME280;50680;52.626;-8.668;2023-08-06T19:13:38;102300.69;;;16.54;100.00
64352;BME280;50680;52.626;-8.668;2023-08-06T19:16:05;102299.34;;;16.47;100.00
64352;BME280;50680;52.626;-8.668;2023-08-06T19:18:32;102303.28;;;16.40;100.00
64352;BME280;50680;52.626;-8.668;2023-08-06T19:20:59;102305.81;;;16.27;100.00
64352;BME280;50680;52.626;-8.668;2023-08-06T19:23:26;102308.13;;;16.17;100.00
64352;BME280;50680;52.626;-8.668;2023-08-06T19:25:54;102304.88;;;16.12;100.00
64352;BME280;50680;52.626;-8.668;2023-08-06T19:28:21;102303.69;;;16.02;100.00
64352;BME280;50680;52.626;-8.668;2023-08-06T19:30:48;102317.72;;;16.04;100.00
64352;BME280;50680;52.626;-8.668;2023-08-06T19:33:16;102313.59;;;15.98;100.00
64352;BME280;50680;52.626;-8.668;2023-08-06T19:35:48;102321.81;;;15.94;100.00
64352;BME280;50680;52.626;-8.668;2023-08-06T19:38:17;102324.03;;;15.86;100.00
64352;BME280;50680;52.626;-8.668;2023-08-06T19:40:45;102324.03;;;15.86;100.00
64352;BME280;50680;52.626;-8.668;2023-08-06T19:43:12;102328.72;;;15.81;100.00
64352;BME280;50680;52.626;-8.668;2023-08-06T19:45:39;102334.44;;;15.73;100.00
64352;BME280;50680;52.626;-8.668;2023-08-06T19:48:06;102320.84;;;15.63;100.00
64352;BME280;50680;52.626;-8.668;2023-08-06T19:50:33;102322.22;;;15.54;100.00
64352;BME280;50680;52.626;-8.668;2023-08-06T19:53:00;102307.69;;;15.30;100.00
64352;BME280;50680;52.626;-8.668;2023-08-06T19:55:27;102322.06;;;15.24;100.00
64352;BME280;50680;52.626;-8.668;2023-08-06T19:57:54;102320.06;;;15.12;100.00
64352;BME280;50680;52.626;-8.668;2023-08-06T20:00:21;102327.72;;;15.00;100.00
64352;BME280;50680;52.626;-8.668;2023-08-06T20:02:48;102335.50;;;14.86;100.00
64352;BME280;50680;52.626;-8.668;2023-08-06T20:05:15;102335.13;;;14.76;100.00
64352;BME280;50680;52.626;-8.668;2023-08-06T20:07:43;102335.66;;;14.65;100.00
64352;BME280;50680;52.626;-8.668;2023-08-06T20:10:09;102332.53;;;14.57;100.00
64352;BME280;50680;52.626;-8.668;2023-08-06T20:12:37;102334.63;;;14.51;100.00
64352;BME280;50680;52.626;-8.668;2023-08-06T20:15:04;102347.13;;;14.47;100.00
64352;BME280;50680;52.626;-8.668;2023-08-06T20:17:31;102349.28;;;14.39;100.00
64352;BME280;50680;52.626;-8.668;2023-08-06T20:19:58;102345.38;;;14.28;100.00
64352;BME280;50680;52.626;-8.668;2023-08-06T20:22:25;102359.81;;;14.21;100.00
64352;BME280;50680;52.626;-8.668;2023-08-06T20:24:52;102354.03;;;14.13;100.00
64352;BME280;50680;52.626;-8.668;2023-08-06T20:27:20;102345.50;;;14.08;100.00
64352;BME280;50680;52.626;-8.668;2023-08-06T20:29:47;102353.84;;;13.99;100.00
64352;BME280;50680;52.626;-8.668;2023-08-06T20:32:14;102353.34;;;13.90;100.00
64352;BME280;50680;52.626;-8.668;2023-08-06T20:34:40;102355.34;;;13.85;100.00
64352;BME280;50680;52.626;-8.668;2023-08-06T20:37:07;102353.88;;;13.80;100.00
64352;BME280;50680;52.626;-8.668;2023-08-06T20:39:36;102351.66;;;13.70;100.00
64352;BME280;50680;52.626;-8.668;2023-08-06T20:42:03;102359.19;;;13.59;100.00
64352;BME280;50680;52.626;-8.668;2023-08-06T20:44:30;102355.47;;;13.44;100.00
64352;BME280;50680;52.626;-8.668;2023-08-06T20:47:01;102360.31;;;13.34;100.00
64352;BME280;50680;52.626;-8.668;2023-08-06T20:49:28;102354.56;;;13.25;100.00
64352;BME280;50680;52.626;-8.668;2023-08-06T20:51:55;102360.38;;;13.12;100.00
64352;BME280;50680;52.626;-8.668;2023-08-06T20:54:23;102365.75;;;13.09;100.00
64352;BME280;50680;52.626;-8.668;2023-08-06T20:56:50;102373.72;;;13.08;100.00
64352;BME280;50680;52.626;-8.668;2023-08-06T20:59:17;102372.88;;;13.07;100.00
64352;BME280;50680;52.626;-8.668;2023-08-06T21:01:44;102370.31;;;13.06;100.00
64352;BME280;50680;52.626;-8.668;2023-08-06T21:04:12;102367.69;;;13.06;100.00
64352;BME280;50680;52.626;-8.668;2023-08-06T21:06:39;102364.31;;;13.02;100.00
64352;BME280;50680;52.626;-8.668;2023-08-06T21:09:06;102366.41;;;12.94;100.00
64352;BME280;50680;52.626;-8.668;2023-08-06T21:11:34;102367.81;;;12.82;100.00
64352;BME280;50680;52.626;-8.668;2023-08-06T21:14:01;102365.50;;;12.74;100.00
64352;BME280;50680;52.626;-8.668;2023-08-06T21:16:28;102365.56;;;12.73;100.00
64352;BME280;50680;52.626;-8.668;2023-08-06T21:18:55;102364.94;;;12.66;100.00
64352;BME280;50680;52.626;-8.668;2023-08-06T21:21:22;102346.94;;;12.57;100.00
64352;BME280;50680;52.626;-8.668;2023-08-06T21:23:49;102358.69;;;12.48;100.00
64352;BME280;50680;52.626;-8.668;2023-08-06T21:26:16;102364.19;;;12.42;100.00
64352;BME280;50680;52.626;-8.668;2023-08-06T21:28:44;102358.25;;;12.37;100.00
64352;BME280;50680;52.626;-8.668;2023-08-06T21:31:11;102356.63;;;12.34;100.00
64352;BME280;50680;52.626;-8.668;2023-08-06T21:33:40;102354.22;;;12.28;100.00
64352;BME280;50680;52.626;-8.668;2023-08-06T21:36:09;102348.63;;;12.15;100.00
64352;BME280;50680;52.626;-8.668;2023-08-06T21:38:38;102351.34;;;12.12;100.00
64352;BME280;50680;52.626;-8.668;2023-08-06T21:41:10;102347.94;;;12.10;100.00
64352;BME280;50680;52.626;-8.668;2023-08-06T21:43:41;102355.78;;;12.12;100.00
64352;BME280;50680;52.626;-8.668;2023-08-06T21:46:10;102361.94;;;12.11;100.00
64352;BME280;50680;52.626;-8.668;2023-08-06T21:48:41;102354.97;;;12.10;100.00
64352;BME280;50680;52.626;-8.668;2023-08-06T21:51:09;102366.28;;;12.12;100.00
64352;BME280;50680;52.626;-8.668;2023-08-06T21:53:37;102370.50;;;12.16;100.00
64352;BME280;50680;52.626;-8.668;2023-08-06T21:56:09;102368.59;;;12.19;100.00
64352;BME280;50680;52.626;-8.668;2023-08-06T22:01:07;102381.53;;;12.48;100.00
64352;BME280;50680;52.626;-8.668;2023-08-06T22:03:35;102382.66;;;12.63;100.00
64352;BME280;50680;52.626;-8.668;2023-08-06T22:06:02;102381.28;;;12.74;100.00
64352;BME280;50680;52.626;-8.668;2023-08-06T22:08:30;102380.00;;;12.85;100.00
64352;BME280;50680;52.626;-8.668;2023-08-06T22:10:57;102379.81;;;12.89;100.00
64352;BME280;50680;52.626;-8.668;2023-08-06T22:13:24;102379.59;;;12.94;100.00
64352;BME280;50680;52.626;-8.668;2023-08-06T22:15:51;102387.09;;;13.03;100.00
64352;BME280;50680;52.626;-8.668;2023-08-06T22:18:19;102380.66;;;13.10;100.00
64352;BME280;50680;52.626;-8.668;2023-08-06T22:20:46;102379.47;;;13.17;100.00
64352;BME280;50680;52.626;-8.668;2023-08-06T22:23:13;102377.47;;;13.23;100.00
64352;BME280;50680;52.626;-8.668;2023-08-06T22:25:41;102377.81;;;13.35;100.00
64352;BME280;50680;52.626;-8.668;2023-08-06T22:28:08;102366.88;;;13.45;100.00
64352;BME280;50680;52.626;-8.668;2023-08-06T22:30:35;102371.47;;;13.60;100.00
64352;BME280;50680;52.626;-8.668;2023-08-06T22:33:02;102372.00;;;13.67;100.00
64352;BME280;50680;52.626;-8.668;2023-08-06T22:35:29;102374.25;;;13.76;100.00
64352;BME280;50680;52.626;-8.668;2023-08-06T22:37:56;102378.16;;;13.86;100.00
64352;BME280;50680;52.626;-8.668;2023-08-06T22:40:23;102380.16;;;14.00;100.00
64352;BME280;50680;52.626;-8.668;2023-08-06T22:42:51;102368.38;;;14.07;100.00
64352;BME280;50680;52.626;-8.668;2023-08-06T22:45:18;102364.44;;;14.16;100.00
64352;BME280;50680;52.626;-8.668;2023-08-06T22:47:45;102354.75;;;14.17;100.00
64352;BME280;50680;52.626;-8.668;2023-08-06T22:50:12;102358.97;;;14.21;100.00
64352;BME280;50680;52.626;-8.668;2023-08-06T22:52:39;102350.03;;;14.23;100.00
64352;BME280;50680;52.626;-8.668;2023-08-06T22:55:07;102349.25;;;14.21;100.00
64352;BME280;50680;52.626;-8.668;2023-08-06T22:57:53;102343.06;;;14.22;100.00
64352;BME280;50680;52.626;-8.668;2023-08-06T23:00:20;102344.69;;;14.25;100.00
64352;BME280;50680;52.626;-8.668;2023-08-06T23:02:47;102344.28;;;14.33;100.00
64352;BME280;50680;52.626;-8.668;2023-08-06T23:05:34;102343.22;;;14.37;100.00
64352;BME280;50680;52.626;-8.668;2023-08-06T23:08:01;102345.72;;;14.40;100.00
64352;BME280;50680;52.626;-8.668;2023-08-06T23:10:28;102347.41;;;14.41;100.00
64352;BME280;50680;52.626;-8.668;2023-08-06T23:12:55;102348.19;;;14.43;100.00
64352;BME280;50680;52.626;-8.668;2023-08-06T23:15:22;102349.13;;;14.42;100.00
64352;BME280;50680;52.626;-8.668;2023-08-06T23:17:49;102338.59;;;14.42;100.00
64352;BME280;50680;52.626;-8.668;2023-08-06T23:20:16;102345.66;;;14.41;100.00
64352;BME280;50680;52.626;-8.668;2023-08-06T23:22:43;102350.81;;;14.43;100.00
64352;BME280;50680;52.626;-8.668;2023-08-06T23:25:10;102353.56;;;14.41;100.00
64352;BME280;50680;52.626;-8.668;2023-08-06T23:27:37;102347.28;;;14.44;100.00
64352;BME280;50680;52.626;-8.668;2023-08-06T23:30:05;102348.13;;;14.44;100.00
64352;BME280;50680;52.626;-8.668;2023-08-06T23:32:32;102345.53;;;14.43;100.00
64352;BME280;50680;52.626;-8.668;2023-08-06T23:34:59;102343.72;;;14.45;100.00
64352;BME280;50680;52.626;-8.668;2023-08-06T23:37:26;102343.63;;;14.46;100.00
64352;BME280;50680;52.626;-8.668;2023-08-06T23:39:53;102343.78;;;14.43;100.00
64352;BME280;50680;52.626;-8.668;2023-08-06T23:42:22;102339.44;;;14.42;100.00
64352;BME280;50680;52.626;-8.668;2023-08-06T23:44:50;102338.59;;;14.42;100.00
64352;BME280;50680;52.626;-8.668;2023-08-06T23:47:17;102336.78;;;14.42;100.00
64352;BME280;50680;52.626;-8.668;2023-08-06T23:49:44;102330.88;;;14.37;100.00
64352;BME280;50680;52.626;-8.668;2023-08-06T23:52:11;102337.19;;;14.35;100.00
64352;BME280;50680;52.626;-8.668;2023-08-06T23:54:38;102337.47;;;14.28;100.00
64352;BME280;50680;52.626;-8.668;2023-08-06T23:57:07;102336.75;;;14.25;100.00
64352;BME280;50680;52.626;-8.668;2023-08-06T23:59:34;102327.03;;;14.08;100.00
